sensor_id;sensor_type;location;lat;lon;timestamp;P1;durP1;ratioP1;P2;durP2;ratioP2
1078;SDS011;528;47.872;11.478;2022-10-22T10:03:03;5.07;;;4.67;;
1078;SDS011;528;47.872;11.478;2022-10-22T10:05:31;5.73;;;5.20;;
1078;SDS011;528;47.872;11.478;2022-10-22T10:08:06;4.23;;;3.80;;
1078;SDS011;528;47.872;11.478;2022-10-22T10:10:40;4.70;;;3.90;;
1078;SDS011;528;47.872;11.478;2022-10-22T10:13:19;3.73;;;3.37;;
1078;SDS011;528;47.872;11.478;2022-10-22T10:15:56;4.03;;;3.20;;
1078;SDS011;528;47.872;11.478;2022-10-22T10:18:38;4.20;;;3.90;;
1078;SDS011;528;47.872;11.478;2022-10-22T10:21:14;4.07;;;3.70;;
1078;SDS011;528;47.872;11.478;2022-10-22T10:23:53;3.90;;;3.40;;
1078;SDS011;528;47.872;11.478;2022-10-22T10:26:26;4.30;;;3.50;;
1078;SDS011;528;47.872;11.478;2022-10-22T10:29:04;3.50;;;3.20;;
1078;SDS011;528;47.872;11.478;2022-10-22T10:31:44;2.73;;;2.53;;
1078;SDS011;528;47.872;11.478;2022-10-22T10:34:28;3.23;;;2.50;;
1078;SDS011;528;47.872;11.478;2022-10-22T10:37:09;2.57;;;2.37;;
1078;SDS011;528;47.872;11.478;2022-10-22T10:39:47;3.03;;;2.83;;
1078;SDS011;528;47.872;11.478;2022-10-22T10:42:29;2.37;;;2.00;;
1078;SDS011;528;47.872;11.478;2022-10-22T10:45:09;2.90;;;2.60;;
1078;SDS011;528;47.872;11.478;2022-10-22T10:47:52;1.80;;;1.60;;
1078;SDS011;528;47.872;11.478;2022-10-22T10:50:36;2.95;;;2.50;;
1078;SDS011;528;47.872;11.478;2022-10-22T10:53:13;1.97;;;1.70;;
1078;SDS011;528;47.872;11.478;2022-10-22T10:55:54;1.93;;;1.80;;
1078;SDS011;528;47.872;11.478;2022-10-22T10:58:30;2.00;;;1.80;;
1078;SDS011;528;47.872;11.478;2022-10-22T11:01:09;1.63;;;1.50;;
1078;SDS011;528;47.872;11.478;2022-10-22T11:06:35;1.43;;;1.33;;
1078;SDS011;528;47.872;11.478;2022-10-22T11:09:06;1.60;;;1.50;;
1078;SDS011;528;47.872;11.478;2022-10-22T11:11:41;1.53;;;1.43;;
1078;SDS011;528;47.872;11.478;2022-10-22T11:59:37;0.83;;;0.83;;
1078;SDS011;528;47.872;11.478;2022-10-22T12:02:22;1.80;;;1.03;;
1078;SDS011;528;47.872;11.478;2022-10-22T12:11:05;0.60;;;0.60;;
1078;SDS011;528;47.872;11.478;2022-10-22T12:13:53;0.97;;;0.87;;
1078;SDS011;528;47.872;11.478;2022-10-22T12:16:42;0.90;;;0.90;;
1078;SDS011;528;47.872;11.478;2022-10-22T12:19:14;0.77;;;0.77;;
1078;SDS011;528;47.872;11.478;2022-10-22T12:21:58;1.60;;;0.83;;
1078;SDS011;528;47.872;11.478;2022-10-22T12:24:51;2.30;;;0.70;;
1078;SDS011;528;47.872;11.478;2022-10-22T12:27:32;0.70;;;0.70;;
1078;SDS011;528;47.872;11.478;2022-10-22T12:30:15;0.80;;;0.80;;
1078;SDS011;528;47.872;11.478;2022-10-22T12:33:16;0.80;;;0.67;;
1078;SDS011;528;47.872;11.478;2022-10-22T12:36:13;0.90;;;0.70;;
1078;SDS011;528;47.872;11.478;2022-10-22T12:42:23;3.67;;;0.80;;
1078;SDS011;528;47.872;11.478;2022-10-22T12:44:57;0.83;;;0.80;;
1078;SDS011;528;47.872;11.478;2022-10-22T12:47:25;0.83;;;0.60;;
1078;SDS011;528;47.872;11.478;2022-10-22T12:53:01;1.03;;;0.77;;
1078;SDS011;528;47.872;11.478;2022-10-22T12:55:34;0.87;;;0.87;;
1078;SDS011;528;47.872;11.478;2022-10-22T12:58:27;1.83;;;1.00;;
1078;SDS011;528;47.872;11.478;2022-10-22T13:01:21;0.80;;;0.80;;
1078;SDS011;528;47.872;11.478;2022-10-22T13:04:02;1.20;;;0.80;;
1078;SDS011;528;47.872;11.478;2022-10-22T13:07:02;1.17;;;0.80;;
1078;SDS011;528;47.872;11.478;2022-10-22T13:09:36;0.83;;;0.70;;
1078;SDS011;528;47.872;11.478;2022-10-22T13:12:12;1.60;;;1.00;;
1078;SDS011;528;47.872;11.478;2022-10-22T13:14:51;2.13;;;1.10;;
1078;SDS011;528;47.872;11.478;2022-10-22T13:17:39;2.10;;;1.23;;
1078;SDS011;528;47.872;11.478;2022-10-22T13:20:14;3.43;;;1.43;;
1078;SDS011;528;47.872;11.478;2022-10-22T13:22:53;1.30;;;1.03;;
1078;SDS011;528;47.872;11.478;2022-10-22T13:25:25;0.87;;;0.70;;
1078;SDS011;528;47.872;11.478;2022-10-22T13:28:14;0.60;;;0.60;;
1078;SDS011;528;47.872;11.478;2022-10-22T13:30:52;2.40;;;0.50;;
1078;SDS011;528;47.872;11.478;2022-10-22T13:33:41;0.70;;;0.53;;
1078;SDS011;528;47.872;11.478;2022-10-22T13:36:15;0.60;;;0.60;;
1078;SDS011;528;47.872;11.478;2022-10-22T13:42:09;1.33;;;0.70;;
1078;SDS011;528;47.872;11.478;2022-10-22T13:44:48;1.13;;;0.80;;
1078;SDS011;528;47.872;11.478;2022-10-22T13:47:28;0.63;;;0.60;;
1078;SDS011;528;47.872;11.478;2022-10-22T13:50:11;1.20;;;0.60;;
1078;SDS011;528;47.872;11.478;2022-10-22T13:52:45;0.60;;;0.60;;
1078;SDS011;528;47.872;11.478;2022-10-22T13:58:19;1.00;;;0.80;;
1078;SDS011;528;47.872;11.478;2022-10-22T14:00:50;0.70;;;0.70;;
1078;SDS011;528;47.872;11.478;2022-10-22T14:03:22;0.60;;;0.60;;
1078;SDS011;528;47.872;11.478;2022-10-22T14:05:54;2.00;;;0.90;;
1078;SDS011;528;47.872;11.478;2022-10-22T14:08:27;1.03;;;0.97;;
1078;SDS011;528;47.872;11.478;2022-10-22T14:11:00;0.83;;;0.70;;
1078;SDS011;528;47.872;11.478;2022-10-22T14:13:34;1.70;;;1.20;;
1078;SDS011;528;47.872;11.478;2022-10-22T14:16:04;1.43;;;1.10;;
1078;SDS011;528;47.872;11.478;2022-10-22T14:18:35;1.97;;;0.90;;
1078;SDS011;528;47.872;11.478;2022-10-22T14:21:05;1.23;;;0.70;;
1078;SDS011;528;47.872;11.478;2022-10-22T14:23:34;1.53;;;0.93;;
1078;SDS011;528;47.872;11.478;2022-10-22T14:26:19;0.60;;;0.60;;
1078;SDS011;528;47.872;11.478;2022-10-22T14:28:48;1.27;;;0.80;;
1078;SDS011;528;47.872;11.478;2022-10-22T14:31:16;0.60;;;0.60;;
1078;SDS011;528;47.872;11.478;2022-10-22T14:33:43;0.60;;;0.60;;
1078;SDS011;528;47.872;11.478;2022-10-22T14:36:13;1.20;;;0.80;;
1078;SDS011;528;47.872;11.478;2022-10-22T14:38:42;0.90;;;0.87;;
1078;SDS011;528;47.872;11.478;2022-10-22T14:41:14;2.13;;;0.83;;
1078;SDS011;528;47.872;11.478;2022-10-22T14:43:46;3.93;;;0.97;;
1078;SDS011;528;47.872;11.478;2022-10-22T14:46:15;2.50;;;0.90;;
1078;SDS011;528;47.872;11.478;2022-10-22T14:48:44;0.87;;;0.60;;
1078;SDS011;528;47.872;11.478;2022-10-22T14:51:11;2.53;;;1.13;;
1078;SDS011;528;47.872;11.478;2022-10-22T14:53:41;0.90;;;0.70;;
1078;SDS011;528;47.872;11.478;2022-10-22T14:56:09;0.67;;;0.60;;
1078;SDS011;528;47.872;11.478;2022-10-22T14:58:40;1.03;;;0.93;;
1078;SDS011;528;47.872;11.478;2022-10-22T15:01:09;1.00;;;0.80;;
1078;SDS011;528;47.872;11.478;2022-10-22T15:03:38;2.50;;;0.73;;
1078;SDS011;528;47.872;11.478;2022-10-22T15:06:08;2.60;;;0.80;;
1078;SDS011;528;47.872;11.478;2022-10-22T15:08:35;2.30;;;0.87;;
1078;SDS011;528;47.872;11.478;2022-10-22T15:11:04;1.50;;;0.93;;
1078;SDS011;528;47.872;11.478;2022-10-22T15:13:33;1.90;;;1.60;;
1078;SDS011;528;47.872;11.478;2022-10-22T15:16:00;1.10;;;1.00;;
1078;SDS011;528;47.872;11.478;2022-10-22T15:18:32;1.53;;;1.20;;
1078;SDS011;528;47.872;11.478;2022-10-22T15:21:01;2.07;;;1.27;;
1078;SDS011;528;47.872;11.478;2022-10-22T15:23:29;1.60;;;1.50;;
1078;SDS011;528;47.872;11.478;2022-10-22T15:25:57;1.60;;;1.50;;
1078;SDS011;528;47.872;11.478;2022-10-22T15:28:24;1.17;;;1.07;;
1078;SDS011;528;47.872;11.478;2022-10-22T15:30:54;1.13;;;1.00;;
1078;SDS011;528;47.872;11.478;2022-10-22T15:33:23;2.50;;;1.20;;
1078;SDS011;528;47.872;11.478;2022-10-22T15:35:54;3.17;;;1.30;;
1078;SDS011;528;47.872;11.478;2022-10-22T15:38:24;1.10;;;1.00;;
1078;SDS011;528;47.872;11.478;2022-10-22T15:40:58;1.40;;;1.20;;
1078;SDS011;528;47.872;11.478;2022-10-22T15:43:27;1.40;;;1.30;;
1078;SDS011;528;47.872;11.478;2022-10-22T15:46:07;2.70;;;1.20;;
1078;SDS011;528;47.872;11.478;2022-10-22T15:48:37;1.43;;;1.27;;
1078;SDS011;528;47.872;11.478;2022-10-22T15:51:09;1.20;;;1.03;;
1078;SDS011;528;47.872;11.478;2022-10-22T15:53:39;1.20;;;1.10;;
1078;SDS011;528;47.872;11.478;2022-10-22T15:56:09;1.23;;;1.13;;
1078;SDS011;528;47.872;11.478;2022-10-22T15:58:39;2.10;;;1.10;;
1078;SDS011;528;47.872;11.478;2022-10-22T16:01:08;2.90;;;1.60;;
1078;SDS011;528;47.872;11.478;2022-10-22T16:03:39;2.60;;;1.93;;
1078;SDS011;528;47.872;11.478;2022-10-22T16:06:18;3.40;;;1.70;;
1078;SDS011;528;47.872;11.478;2022-10-22T16:08:45;2.37;;;1.80;;
1078;SDS011;528;47.872;11.478;2022-10-22T16:11:12;3.17;;;1.53;;
1078;SDS011;528;47.872;11.478;2022-10-22T16:13:40;3.50;;;1.33;;
1078;SDS011;528;47.872;11.478;2022-10-22T16:16:08;2.17;;;1.23;;
1078;SDS011;528;47.872;11.478;2022-10-22T16:18:35;2.20;;;1.33;;
1078;SDS011;528;47.872;11.478;2022-10-22T16:21:03;2.90;;;1.57;;
1078;SDS011;528;47.872;11.478;2022-10-22T16:23:48;5.10;;;1.47;;
1078;SDS011;528;47.872;11.478;2022-10-22T16:26:19;5.33;;;1.67;;
1078;SDS011;528;47.872;11.478;2022-10-22T16:28:47;2.00;;;1.40;;
1078;SDS011;528;47.872;11.478;2022-10-22T16:31:15;2.73;;;2.00;;
1078;SDS011;528;47.872;11.478;2022-10-22T16:33:43;3.93;;;1.90;;
1078;SDS011;528;47.872;11.478;2022-10-22T16:36:11;2.53;;;1.83;;
1078;SDS011;528;47.872;11.478;2022-10-22T16:38:40;2.47;;;2.23;;
1078;SDS011;528;47.872;11.478;2022-10-22T16:41:09;3.03;;;2.40;;
1078;SDS011;528;47.872;11.478;2022-10-22T16:43:38;2.90;;;2.40;;
1078;SDS011;528;47.872;11.478;2022-10-22T16:46:07;4.40;;;2.80;;
1078;SDS011;528;47.872;11.478;2022-10-22T16:48:35;4.87;;;2.63;;
1078;SDS011;528;47.872;11.478;2022-10-22T16:51:05;2.80;;;2.50;;
1078;SDS011;528;47.872;11.478;2022-10-22T16:53:34;3.47;;;2.40;;
1078;SDS011;528;47.872;11.478;2022-10-22T16:56:02;3.60;;;2.47;;
1078;SDS011;528;47.872;11.478;2022-10-22T16:58:31;3.70;;;2.63;;
1078;SDS011;528;47.872;11.478;2022-10-22T17:00:59;3.83;;;3.53;;
1078;SDS011;528;47.872;11.478;2022-10-22T17:03:26;5.17;;;2.90;;
1078;SDS011;528;47.872;11.478;2022-10-22T17:05:57;4.77;;;3.07;;
1078;SDS011;528;47.872;11.478;2022-10-22T17:08:24;5.90;;;3.60;;
1078;SDS011;528;47.872;11.478;2022-10-22T17:10:52;2.80;;;2.60;;
1078;SDS011;528;47.872;11.478;2022-10-22T17:13:19;2.97;;;2.20;;
1078;SDS011;528;47.872;11.478;2022-10-22T17:15:50;2.50;;;2.30;;
1078;SDS011;528;47.872;11.478;2022-10-22T17:18:18;2.90;;;2.57;;
1078;SDS011;528;47.872;11.478;2022-10-22T17:20:45;4.40;;;3.33;;
1078;SDS011;528;47.872;11.478;2022-10-22T17:23:15;83.43;;;39.67;;
1078;SDS011;528;47.872;11.478;2022-10-22T17:25:45;76.73;;;34.30;;
1078;SDS011;528;47.872;11.478;2022-10-22T17:28:12;43.20;;;20.83;;
1078;SDS011;528;47.872;11.478;2022-10-22T17:30:40;23.33;;;12.50;;
1078;SDS011;528;47.872;11.478;2022-10-22T17:33:09;13.40;;;6.60;;
1078;SDS011;528;47.872;11.478;2022-10-22T17:35:38;7.77;;;5.07;;
1078;SDS011;528;47.872;11.478;2022-10-22T17:38:07;20.20;;;9.73;;
1078;SDS011;528;47.872;11.478;2022-10-22T17:40:34;61.30;;;27.00;;
1078;SDS011;528;47.872;11.478;2022-10-22T17:43:03;35.13;;;16.40;;
1078;SDS011;528;47.872;11.478;2022-10-22T17:45:31;15.93;;;8.10;;
1078;SDS011;528;47.872;11.478;2022-10-22T17:48:01;10.60;;;5.87;;
1078;SDS011;528;47.872;11.478;2022-10-22T17:50:30;123.63;;;44.60;;
1078;SDS011;528;47.872;11.478;2022-10-22T17:53:01;51.47;;;21.00;;
1078;SDS011;528;47.872;11.478;2022-10-22T17:55:28;50.90;;;21.30;;
1078;SDS011;528;47.872;11.478;2022-10-22T17:57:58;21.27;;;10.03;;
1078;SDS011;528;47.872;11.478;2022-10-22T18:00:26;14.52;;;7.95;;
1078;SDS011;528;47.872;11.478;2022-10-22T18:02:57;9.40;;;5.80;;
1078;SDS011;528;47.872;11.478;2022-10-22T18:05:25;7.47;;;4.07;;
1078;SDS011;528;47.872;11.478;2022-10-22T18:07:55;5.37;;;3.77;;
1078;SDS011;528;47.872;11.478;2022-10-22T18:10:24;5.43;;;3.57;;
1078;SDS011;528;47.872;11.478;2022-10-22T18:12:51;10.77;;;6.40;;
1078;SDS011;528;47.872;11.478;2022-10-22T18:15:23;17.27;;;12.13;;
1078;SDS011;528;47.872;11.478;2022-10-22T18:17:53;16.90;;;14.80;;
1078;SDS011;528;47.872;11.478;2022-10-22T18:20:20;18.70;;;11.20;;
1078;SDS011;528;47.872;11.478;2022-10-22T18:22:47;18.63;;;11.00;;
1078;SDS011;528;47.872;11.478;2022-10-22T18:25:19;19.50;;;11.60;;
1078;SDS011;528;47.872;11.478;2022-10-22T18:27:47;20.47;;;9.50;;
1078;SDS011;528;47.872;11.478;2022-10-22T18:30:17;17.60;;;7.00;;
1078;SDS011;528;47.872;11.478;2022-10-22T18:32:47;8.40;;;4.70;;
1078;SDS011;528;47.872;11.478;2022-10-22T18:35:17;6.53;;;3.63;;
1078;SDS011;528;47.872;11.478;2022-10-22T18:37:44;8.00;;;5.67;;
1078;SDS011;528;47.872;11.478;2022-10-22T18:40:13;15.40;;;9.40;;
1078;SDS011;528;47.872;11.478;2022-10-22T18:42:44;17.80;;;14.40;;
1078;SDS011;528;47.872;11.478;2022-10-22T18:45:14;15.20;;;13.37;;
1078;SDS011;528;47.872;11.478;2022-10-22T18:47:48;13.27;;;10.73;;
1078;SDS011;528;47.872;11.478;2022-10-22T18:50:16;13.43;;;10.83;;
1078;SDS011;528;47.872;11.478;2022-10-22T18:52:43;12.77;;;11.57;;
1078;SDS011;528;47.872;11.478;2022-10-22T18:55:14;11.70;;;10.50;;
1078;SDS011;528;47.872;11.478;2022-10-22T18:57:44;11.30;;;9.37;;
1078;SDS011;528;47.872;11.478;2022-10-22T19:00:14;11.80;;;9.97;;
1078;SDS011;528;47.872;11.478;2022-10-22T19:02:42;13.83;;;12.30;;
1078;SDS011;528;47.872;11.478;2022-10-22T19:05:09;14.30;;;12.17;;
1078;SDS011;528;47.872;11.478;2022-10-22T19:07:37;12.70;;;11.40;;
1078;SDS011;528;47.872;11.478;2022-10-22T19:10:05;14.50;;;12.73;;
1078;SDS011;528;47.872;11.478;2022-10-22T19:12:33;19.33;;;12.40;;
1078;SDS011;528;47.872;11.478;2022-10-22T19:15:05;19.43;;;14.33;;
1078;SDS011;528;47.872;11.478;2022-10-22T19:17:33;18.97;;;13.97;;
1078;SDS011;528;47.872;11.478;2022-10-22T19:20:01;18.60;;;13.83;;
1078;SDS011;528;47.872;11.478;2022-10-22T19:22:28;8.77;;;7.10;;
1078;SDS011;528;47.872;11.478;2022-10-22T19:24:57;10.63;;;4.23;;
1078;SDS011;528;47.872;11.478;2022-10-22T19:27:33;5.97;;;3.20;;
1078;SDS011;528;47.872;11.478;2022-10-22T19:30:07;4.97;;;3.30;;
1078;SDS011;528;47.872;11.478;2022-10-22T19:32:38;13.17;;;9.60;;
1078;SDS011;528;47.872;11.478;2022-10-22T19:35:09;15.43;;;11.90;;
1078;SDS011;528;47.872;11.478;2022-10-22T19:37:42;13.37;;;11.60;;
1078;SDS011;528;47.872;11.478;2022-10-22T19:40:10;14.20;;;11.53;;
1078;SDS011;528;47.872;11.478;2022-10-22T19:42:40;15.03;;;12.67;;
1078;SDS011;528;47.872;11.478;2022-10-22T19:45:15;12.20;;;11.00;;
1078;SDS011;528;47.872;11.478;2022-10-22T19:47:54;15.60;;;12.17;;
1078;SDS011;528;47.872;11.478;2022-10-22T19:50:23;17.10;;;13.93;;
1078;SDS011;528;47.872;11.478;2022-10-22T19:52:50;15.90;;;14.30;;
1078;SDS011;528;47.872;11.478;2022-10-22T19:55:17;16.73;;;14.60;;
1078;SDS011;528;47.872;11.478;2022-10-22T19:57:45;16.40;;;13.27;;
1078;SDS011;528;47.872;11.478;2022-10-22T20:00:14;12.33;;;11.03;;
1078;SDS011;528;47.872;11.478;2022-10-22T20:02:41;14.80;;;13.20;;
1078;SDS011;528;47.872;11.478;2022-10-22T20:05:12;11.50;;;10.00;;
1078;SDS011;528;47.872;11.478;2022-10-22T20:07:40;10.37;;;9.27;;
1078;SDS011;528;47.872;11.478;2022-10-22T20:10:10;15.00;;;10.40;;
1078;SDS011;528;47.872;11.478;2022-10-22T20:12:37;14.47;;;10.97;;
1078;SDS011;528;47.872;11.478;2022-10-22T20:15:06;18.30;;;14.23;;
1078;SDS011;528;47.872;11.478;2022-10-22T20:17:36;19.90;;;15.30;;
1078;SDS011;528;47.872;11.478;2022-10-22T20:20:04;18.50;;;14.40;;
1078;SDS011;528;47.872;11.478;2022-10-22T20:22:32;16.53;;;13.23;;
1078;SDS011;528;47.872;11.478;2022-10-22T20:24:59;16.97;;;13.40;;
1078;SDS011;528;47.872;11.478;2022-10-22T20:27:27;17.60;;;13.10;;
1078;SDS011;528;47.872;11.478;2022-10-22T20:29:56;16.13;;;12.90;;
1078;SDS011;528;47.872;11.478;2022-10-22T20:32:26;17.20;;;11.57;;
1078;SDS011;528;47.872;11.478;2022-10-22T20:34:56;16.07;;;12.03;;
1078;SDS011;528;47.872;11.478;2022-10-22T20:37:24;16.70;;;11.43;;
1078;SDS011;528;47.872;11.478;2022-10-22T20:39:51;13.67;;;12.17;;
1078;SDS011;528;47.872;11.478;2022-10-22T20:42:18;17.77;;;15.30;;
1078;SDS011;528;47.872;11.478;2022-10-22T20:44:48;17.83;;;15.40;;
1078;SDS011;528;47.872;11.478;2022-10-22T20:47:16;19.30;;;16.20;;
1078;SDS011;528;47.872;11.478;2022-10-22T20:49:43;19.53;;;16.70;;
1078;SDS011;528;47.872;11.478;2022-10-22T20:52:15;19.43;;;17.33;;
1078;SDS011;528;47.872;11.478;2022-10-22T20:54:47;18.93;;;16.93;;
1078;SDS011;528;47.872;11.478;2022-10-22T20:57:18;20.40;;;18.20;;
1078;SDS011;528;47.872;11.478;2022-10-22T20:59:45;21.10;;;18.30;;
1078;SDS011;528;47.872;11.478;2022-10-22T21:02:12;23.43;;;18.60;;
1078;SDS011;528;47.872;11.478;2022-10-22T21:04:42;15.45;;;13.77;;
1078;SDS011;528;47.872;11.478;2022-10-22T21:07:17;11.43;;;9.80;;
1078;SDS011;528;47.872;11.478;2022-10-22T21:09:47;11.97;;;9.60;;
1078;SDS011;528;47.872;11.478;2022-10-22T21:12:15;8.50;;;6.70;;
1078;SDS011;528;47.872;11.478;2022-10-22T21:14:45;9.40;;;7.87;;
1078;SDS011;528;47.872;11.478;2022-10-22T21:17:13;13.03;;;9.60;;
1078;SDS011;528;47.872;11.478;2022-10-22T21:19:43;11.43;;;9.90;;
1078;SDS011;528;47.872;11.478;2022-10-22T21:22:12;12.37;;;9.83;;
1078;SDS011;528;47.872;11.478;2022-10-22T21:24:44;11.60;;;10.10;;
1078;SDS011;528;47.872;11.478;2022-10-22T21:27:13;12.70;;;11.40;;
1078;SDS011;528;47.872;11.478;2022-10-22T21:29:42;12.07;;;10.37;;
1078;SDS011;528;47.872;11.478;2022-10-22T21:32:10;12.50;;;10.30;;
1078;SDS011;528;47.872;11.478;2022-10-22T21:34:37;11.47;;;9.73;;
1078;SDS011;528;47.872;11.478;2022-10-22T21:37:05;10.60;;;8.07;;
1078;SDS011;528;47.872;11.478;2022-10-22T21:39:32;8.90;;;8.00;;
1078;SDS011;528;47.872;11.478;2022-10-22T21:42:04;8.30;;;7.50;;
1078;SDS011;528;47.872;11.478;2022-10-22T21:44:33;8.00;;;6.40;;
1078;SDS011;528;47.872;11.478;2022-10-22T21:47:09;8.50;;;6.47;;
1078;SDS011;528;47.872;11.478;2022-10-22T21:49:36;10.87;;;5.93;;
1078;SDS011;528;47.872;11.478;2022-10-22T21:52:04;5.73;;;5.23;;
1078;SDS011;528;47.872;11.478;2022-10-22T21:54:38;8.10;;;5.43;;
1078;SDS011;528;47.872;11.478;2022-10-22T21:57:09;5.83;;;5.10;;
1078;SDS011;528;47.872;11.478;2022-10-22T21:59:44;6.33;;;5.47;;
1078;SDS011;528;47.872;11.478;2022-10-22T22:02:12;5.90;;;5.23;;
1078;SDS011;528;47.872;11.478;2022-10-22T22:04:39;8.80;;;5.90;;
1078;SDS011;528;47.872;11.478;2022-10-22T22:07:07;8.50;;;5.90;;
1078;SDS011;528;47.872;11.478;2022-10-22T22:09:34;7.70;;;5.63;;
1078;SDS011;528;47.872;11.478;2022-10-22T22:12:08;8.40;;;5.87;;
1078;SDS011;528;47.872;11.478;2022-10-22T22:14:37;6.80;;;6.20;;
1078;SDS011;528;47.872;11.478;2022-10-22T22:17:05;6.30;;;5.70;;
1078;SDS011;528;47.872;11.478;2022-10-22T22:19:34;6.70;;;5.97;;
1078;SDS011;528;47.872;11.478;2022-10-22T22:22:02;6.60;;;6.10;;
1078;SDS011;528;47.872;11.478;2022-10-22T22:24:30;7.10;;;6.10;;
1078;SDS011;528;47.872;11.478;2022-10-22T22:26:57;6.90;;;6.20;;
1078;SDS011;528;47.872;11.478;2022-10-22T22:29:26;6.03;;;5.53;;
1078;SDS011;528;47.872;11.478;2022-10-22T22:31:54;6.53;;;5.93;;
1078;SDS011;528;47.872;11.478;2022-10-22T22:34:21;7.57;;;6.87;;
1078;SDS011;528;47.872;11.478;2022-10-22T22:36:49;7.63;;;6.90;;
1078;SDS011;528;47.872;11.478;2022-10-22T22:39:18;7.00;;;5.80;;
1078;SDS011;528;47.872;11.478;2022-10-22T22:41:53;6.80;;;6.10;;
1078;SDS011;528;47.872;11.478;2022-10-22T22:44:35;7.77;;;5.70;;
1078;SDS011;528;47.872;11.478;2022-10-22T22:47:05;8.10;;;6.30;;
1078;SDS011;528;47.872;11.478;2022-10-22T22:49:32;6.53;;;5.83;;
1078;SDS011;528;47.872;11.478;2022-10-22T22:52:01;8.60;;;5.70;;
1078;SDS011;528;47.872;11.478;2022-10-22T22:54:28;7.60;;;5.67;;
1078;SDS011;528;47.872;11.478;2022-10-22T22:56:55;7.37;;;6.67;;
1078;SDS011;528;47.872;11.478;2022-10-22T22:59:23;5.87;;;5.37;;
1078;SDS011;528;47.872;11.478;2022-10-22T23:01:52;8.57;;;4.63;;
1078;SDS011;528;47.872;11.478;2022-10-22T23:04:19;8.43;;;4.70;;
1078;SDS011;528;47.872;11.478;2022-10-22T23:06:49;5.50;;;4.97;;
1078;SDS011;528;47.872;11.478;2022-10-22T23:09:18;6.00;;;4.83;;
1078;SDS011;528;47.872;11.478;2022-10-22T23:11:45;6.30;;;5.13;;
1078;SDS011;528;47.872;11.478;2022-10-22T23:14:15;5.03;;;4.53;;
1078;SDS011;528;47.872;11.478;2022-10-22T23:16:44;4.50;;;4.10;;
1078;SDS011;528;47.872;11.478;2022-10-22T23:19:14;7.00;;;4.00;;
1078;SDS011;528;47.872;11.478;2022-10-22T23:21:44;5.70;;;4.27;;
1078;SDS011;528;47.872;11.478;2022-10-22T23:24:13;14.20;;;9.83;;
1078;SDS011;528;47.872;11.478;2022-10-22T23:26:49;9.70;;;6.30;;
1078;SDS011;528;47.872;11.478;2022-10-22T23:29:21;5.33;;;4.80;;
1078;SDS011;528;47.872;11.478;2022-10-22T23:31:50;5.80;;;4.50;;
1078;SDS011;528;47.872;11.478;2022-10-22T23:34:20;4.97;;;4.13;;
1078;SDS011;528;47.872;11.478;2022-10-22T23:36:50;9.33;;;6.17;;
1078;SDS011;528;47.872;11.478;2022-10-22T23:39:21;8.57;;;6.90;;
1078;SDS011;528;47.872;11.478;2022-10-22T23:41:50;11.50;;;7.97;;
1078;SDS011;528;47.872;11.478;2022-10-22T23:44:19;10.70;;;8.40;;
1078;SDS011;528;47.872;11.478;2022-10-22T23:46:47;16.37;;;10.60;;
1078;SDS011;528;47.872;11.478;2022-10-22T23:49:15;13.23;;;9.63;;
1078;SDS011;528;47.872;11.478;2022-10-22T23:51:44;15.43;;;9.80;;
1078;SDS011;528;47.872;11.478;2022-10-22T23:54:12;11.70;;;9.30;;
1078;SDS011;528;47.872;11.478;2022-10-22T23:56:40;14.90;;;9.77;;
1078;SDS011;528;47.872;11.478;2022-10-22T23:59:08;16.60;;;11.40;;
